TW-0030 weather

Tungs’ Taichung Metro Harbor Hospital Helipad
Taichung, Taichung (city), Taiwan

Public forecast

Using degrees Celsius for public forecast. Weather courtesy of forecast.io.

Closest aviation weather report (METAR) to Tungs’ Taichung Metro Harbor Hospital Helipad

Closest report is Taichung Ching Chuang Kang Airport, 4.4 nm (8.2 km) ENE. Retrieved 2020/04/08 12:00 UTC (19 minutes ago):

RCMQ 081200Z 36005KT 9999 FEW012 BKN040 19/16 Q1016 NOSIG RMK A3001

Closest aviation forecast (TAF) to Tungs’ Taichung Metro Harbor Hospital Helipad

Closest forecast is Taichung Ching Chuang Kang Airport, 4.4 nm (8.2 km) ENE. Retrieved 2020/04/08 12:21 UTC (0 seconds ago):

TAF RCMQ 081100Z 0812/0912 01006KT 9999 FEW010 BKN040 TX24/0905Z TN15/0821Z TEMPO 0818/0823 7000 BECMG 0902/0905 01014KT FEW012 SCT050 BECMG 0908/0911 01008KT FEW012 BKN050